sensor_id;sensor_type;location;lat;lon;timestamp;pressure;altitude;pressure_sealevel;temperature;humidity
46379;BME280;32084;42.254;22.744;2023-01-27T00:00:55;94343.03;;;2.39;89.58
46379;BME280;32084;42.254;22.744;2023-01-27T00:03:22;94347.84;;;2.55;88.65
46379;BME280;32084;42.254;22.744;2023-01-27T00:05:48;94340.16;;;2.52;89.00
46379;BME280;32084;42.254;22.744;2023-01-27T00:08:15;94335.22;;;2.59;88.24
46379;BME280;32084;42.254;22.744;2023-01-27T00:10:41;94339.91;;;2.55;88.39
46379;BME280;32084;42.254;22.744;2023-01-27T00:13:09;94332.81;;;2.56;87.93
46379;BME280;32084;42.254;22.744;2023-01-27T00:15:51;94310.19;;;2.53;88.19
46379;BME280;32084;42.254;22.744;2023-01-27T00:18:18;94316.81;;;2.47;88.75
46379;BME280;32084;42.254;22.744;2023-01-27T00:20:44;94315.81;;;2.39;89.07
46379;BME280;32084;42.254;22.744;2023-01-27T00:23:29;94303.03;;;2.34;89.29
46379;BME280;32084;42.254;22.744;2023-01-27T00:26:17;94293.72;;;2.30;89.54
46379;BME280;32084;42.254;22.744;2023-01-27T00:28:44;94281.38;;;2.40;88.59
46379;BME280;32084;42.254;22.744;2023-01-27T00:31:11;94289.00;;;2.33;88.61
46379;BME280;32084;42.254;22.744;2023-01-27T00:33:55;94296.75;;;2.35;88.50
46379;BME280;32084;42.254;22.744;2023-01-27T00:36:27;94296.53;;;2.48;87.41
46379;BME280;32084;42.254;22.744;2023-01-27T00:38:54;94305.84;;;2.52;87.26
46379;BME280;32084;42.254;22.744;2023-01-27T00:41:20;94315.59;;;2.51;87.92
46379;BME280;32084;42.254;22.744;2023-01-27T00:43:49;94291.41;;;2.46;88.56
46379;BME280;32084;42.254;22.744;2023-01-27T00:46:15;94288.59;;;2.38;89.00
46379;BME280;32084;42.254;22.744;2023-01-27T00:48:42;94308.44;;;2.32;89.04
46379;BME280;32084;42.254;22.744;2023-01-27T00:51:08;94318.56;;;2.37;88.80
46379;BME280;32084;42.254;22.744;2023-01-27T00:53:35;94324.59;;;2.39;87.95
46379;BME280;32084;42.254;22.744;2023-01-27T00:56:01;94334.75;;;2.53;86.59
46379;BME280;32084;42.254;22.744;2023-01-27T00:58:27;94337.97;;;2.57;86.77
46379;BME280;32084;42.254;22.744;2023-01-27T01:00:54;94340.75;;;2.56;87.43
46379;BME280;32084;42.254;22.744;2023-01-27T01:03:20;94346.16;;;2.54;87.81
46379;BME280;32084;42.254;22.744;2023-01-27T01:05:47;94341.28;;;2.49;88.75
46379;BME280;32084;42.254;22.744;2023-01-27T01:08:13;94337.69;;;2.50;88.86
46379;BME280;32084;42.254;22.744;2023-01-27T01:10:39;94323.91;;;2.47;88.73
46379;BME280;32084;42.254;22.744;2023-01-27T01:13:05;94314.84;;;2.40;89.79
46379;BME280;32084;42.254;22.744;2023-01-27T01:15:37;94319.03;;;2.42;89.82
46379;BME280;32084;42.254;22.744;2023-01-27T01:18:03;94315.31;;;2.45;89.21
46379;BME280;32084;42.254;22.744;2023-01-27T01:20:29;94317.78;;;2.46;89.53
46379;BME280;32084;42.254;22.744;2023-01-27T01:22:55;94321.53;;;2.44;89.82
46379;BME280;32084;42.254;22.744;2023-01-27T01:25:22;94321.66;;;2.42;89.06
46379;BME280;32084;42.254;22.744;2023-01-27T01:27:48;94313.75;;;2.42;88.65
46379;BME280;32084;42.254;22.744;2023-01-27T01:30:14;94312.09;;;2.41;89.05
46379;BME280;32084;42.254;22.744;2023-01-27T01:32:40;94307.22;;;2.46;88.45
46379;BME280;32084;42.254;22.744;2023-01-27T01:35:06;94298.34;;;2.47;88.40
46379;BME280;32084;42.254;22.744;2023-01-27T01:37:32;94289.03;;;2.43;88.80
46379;BME280;32084;42.254;22.744;2023-01-27T01:39:58;94285.78;;;2.30;89.70
46379;BME280;32084;42.254;22.744;2023-01-27T01:42:24;94281.78;;;2.36;90.02
46379;BME280;32084;42.254;22.744;2023-01-27T01:44:53;94291.09;;;2.40;90.04
46379;BME280;32084;42.254;22.744;2023-01-27T01:47:36;94288.19;;;2.43;90.15
46379;BME280;32084;42.254;22.744;2023-01-27T01:50:03;94291.09;;;2.40;89.63
46379;BME280;32084;42.254;22.744;2023-01-27T01:52:29;94288.81;;;2.25;91.00
46379;BME280;32084;42.254;22.744;2023-01-27T01:54:55;94294.78;;;2.27;91.39
46379;BME280;32084;42.254;22.744;2023-01-27T01:57:24;94285.50;;;2.33;91.27
46379;BME280;32084;42.254;22.744;2023-01-27T02:00:12;94275.81;;;2.33;91.18
46379;BME280;32084;42.254;22.744;2023-01-27T02:02:37;94282.63;;;2.36;91.02
46379;BME280;32084;42.254;22.744;2023-01-27T02:05:09;94285.25;;;2.36;90.98
46379;BME280;32084;42.254;22.744;2023-01-27T02:07:38;94283.72;;;2.33;91.19
46379;BME280;32084;42.254;22.744;2023-01-27T02:10:07;94277.88;;;2.30;91.33
46379;BME280;32084;42.254;22.744;2023-01-27T02:12:33;94273.84;;;2.26;91.64
46379;BME280;32084;42.254;22.744;2023-01-27T02:14:59;94270.91;;;2.29;91.31
46379;BME280;32084;42.254;22.744;2023-01-27T02:17:25;94267.47;;;2.28;91.54
46379;BME280;32084;42.254;22.744;2023-01-27T02:22:42;94265.94;;;2.26;91.69
46379;BME280;32084;42.254;22.744;2023-01-27T02:27:44;94265.41;;;2.32;91.47
46379;BME280;32084;42.254;22.744;2023-01-27T02:30:10;94263.47;;;2.34;91.45
46379;BME280;32084;42.254;22.744;2023-01-27T02:32:36;94258.31;;;2.32;91.48
46379;BME280;32084;42.254;22.744;2023-01-27T02:35:02;94265.97;;;2.36;91.49
46379;BME280;32084;42.254;22.744;2023-01-27T02:37:30;94267.03;;;2.33;91.10
46379;BME280;32084;42.254;22.744;2023-01-27T02:39:56;94259.84;;;2.35;91.20
46379;BME280;32084;42.254;22.744;2023-01-27T02:42:23;94255.97;;;2.39;90.88
46379;BME280;32084;42.254;22.744;2023-01-27T02:44:49;94255.13;;;2.39;91.05
46379;BME280;32084;42.254;22.744;2023-01-27T02:47:15;94250.97;;;2.36;91.18
46379;BME280;32084;42.254;22.744;2023-01-27T02:49:41;94249.81;;;2.29;91.29
46379;BME280;32084;42.254;22.744;2023-01-27T02:52:07;94248.69;;;2.22;91.88
46379;BME280;32084;42.254;22.744;2023-01-27T02:54:33;94247.41;;;2.16;92.33
46379;BME280;32084;42.254;22.744;2023-01-27T02:56:59;94234.63;;;2.11;92.68
46379;BME280;32084;42.254;22.744;2023-01-27T02:59:25;94225.72;;;2.12;93.19
46379;BME280;32084;42.254;22.744;2023-01-27T03:01:51;94223.25;;;2.11;93.45
46379;BME280;32084;42.254;22.744;2023-01-27T03:04:17;94224.03;;;2.02;94.05
46379;BME280;32084;42.254;22.744;2023-01-27T03:06:43;94235.25;;;1.94;93.90
46379;BME280;32084;42.254;22.744;2023-01-27T03:09:09;94229.97;;;1.94;94.47
46379;BME280;32084;42.254;22.744;2023-01-27T03:11:36;94241.50;;;2.03;93.69
46379;BME280;32084;42.254;22.744;2023-01-27T03:14:20;94225.84;;;2.01;93.82
46379;BME280;32084;42.254;22.744;2023-01-27T03:16:46;94226.41;;;2.05;93.72
46379;BME280;32084;42.254;22.744;2023-01-27T03:19:31;94214.31;;;2.02;93.90
46379;BME280;32084;42.254;22.744;2023-01-27T03:21:57;94213.22;;;2.05;93.62
46379;BME280;32084;42.254;22.744;2023-01-27T03:24:26;94207.56;;;2.09;93.33
46379;BME280;32084;42.254;22.744;2023-01-27T03:26:52;94208.81;;;2.15;93.37
46379;BME280;32084;42.254;22.744;2023-01-27T03:29:18;94203.22;;;2.08;93.14
46379;BME280;32084;42.254;22.744;2023-01-27T03:32:03;94206.13;;;1.95;93.76
46379;BME280;32084;42.254;22.744;2023-01-27T03:34:29;94192.84;;;2.07;94.11
46379;BME280;32084;42.254;22.744;2023-01-27T03:36:55;94199.09;;;2.15;93.27
46379;BME280;32084;42.254;22.744;2023-01-27T03:39:39;94203.59;;;2.25;92.47
46379;BME280;32084;42.254;22.744;2023-01-27T03:42:24;94205.09;;;2.27;92.25
46379;BME280;32084;42.254;22.744;2023-01-27T03:45:09;94207.72;;;2.18;91.30
46379;BME280;32084;42.254;22.744;2023-01-27T03:47:54;94212.84;;;2.09;92.32
46379;BME280;32084;42.254;22.744;2023-01-27T03:50:20;94213.00;;;2.18;91.84
46379;BME280;32084;42.254;22.744;2023-01-27T03:52:55;94207.16;;;2.14;91.64
46379;BME280;32084;42.254;22.744;2023-01-27T03:55:31;94206.06;;;2.17;91.64
46379;BME280;32084;42.254;22.744;2023-01-27T03:57:57;94213.97;;;2.17;91.56
46379;BME280;32084;42.254;22.744;2023-01-27T04:00:43;94212.84;;;2.09;91.93
46379;BME280;32084;42.254;22.744;2023-01-27T04:03:09;94210.44;;;2.06;91.95
46379;BME280;32084;42.254;22.744;2023-01-27T04:05:53;94205.75;;;2.10;91.96
46379;BME280;32084;42.254;22.744;2023-01-27T04:08:41;94202.53;;;2.06;91.83
46379;BME280;32084;42.254;22.744;2023-01-27T04:11:07;94201.88;;;2.14;91.87
46379;BME280;32084;42.254;22.744;2023-01-27T04:13:51;94206.06;;;2.17;91.88
46379;BME280;32084;42.254;22.744;2023-01-27T04:16:17;94209.28;;;2.20;92.20
46379;BME280;32084;42.254;22.744;2023-01-27T04:18:44;94211.06;;;2.20;91.71
46379;BME280;32084;42.254;22.744;2023-01-27T04:21:12;94206.34;;;2.23;91.90
46379;BME280;32084;42.254;22.744;2023-01-27T04:23:38;94216.06;;;2.23;91.94
46379;BME280;32084;42.254;22.744;2023-01-27T04:26:04;94218.38;;;2.16;92.49
46379;BME280;32084;42.254;22.744;2023-01-27T04:28:31;94221.44;;;2.11;92.89
46379;BME280;32084;42.254;22.744;2023-01-27T04:30:57;94225.47;;;2.15;93.02
46379;BME280;32084;42.254;22.744;2023-01-27T04:33:23;94217.19;;;2.20;92.86
46379;BME280;32084;42.254;22.744;2023-01-27T04:35:49;94228.94;;;2.16;93.21
46379;BME280;32084;42.254;22.744;2023-01-27T04:38:15;94217.81;;;2.12;93.38
46379;BME280;32084;42.254;22.744;2023-01-27T04:40:42;94221.72;;;2.18;92.85
46379;BME280;32084;42.254;22.744;2023-01-27T04:43:08;94223.81;;;2.14;92.62
46379;BME280;32084;42.254;22.744;2023-01-27T04:45:34;94228.66;;;2.09;93.15
46379;BME280;32084;42.254;22.744;2023-01-27T04:48:00;94237.38;;;2.10;93.02
46379;BME280;32084;42.254;22.744;2023-01-27T04:50:26;94238.16;;;2.01;93.20
46379;BME280;32084;42.254;22.744;2023-01-27T04:52:52;94253.41;;;1.97;93.41
46379;BME280;32084;42.254;22.744;2023-01-27T04:55:18;94261.53;;;2.05;93.05
46379;BME280;32084;42.254;22.744;2023-01-27T04:57:44;94268.47;;;2.06;92.59
46379;BME280;32084;42.254;22.744;2023-01-27T05:00:10;94276.44;;;1.95;92.69
46379;BME280;32084;42.254;22.744;2023-01-27T05:02:37;94271.66;;;1.79;93.37
46379;BME280;32084;42.254;22.744;2023-01-27T05:05:03;94267.78;;;1.83;93.59
46379;BME280;32084;42.254;22.744;2023-01-27T05:07:29;94263.72;;;2.00;93.03
46379;BME280;32084;42.254;22.744;2023-01-27T05:09:56;94267.09;;;2.12;92.27
46379;BME280;32084;42.254;22.744;2023-01-27T05:12:22;94265.16;;;2.14;92.51
46379;BME280;32084;42.254;22.744;2023-01-27T05:14:48;94265.59;;;2.19;92.75
46379;BME280;32084;42.254;22.744;2023-01-27T05:17:14;94266.19;;;2.23;92.16
46379;BME280;32084;42.254;22.744;2023-01-27T05:19:40;94252.91;;;2.34;91.47
46379;BME280;32084;42.254;22.744;2023-01-27T05:22:06;94235.72;;;2.49;91.01
46379;BME280;32084;42.254;22.744;2023-01-27T05:24:32;94233.09;;;2.49;90.12
46379;BME280;32084;42.254;22.744;2023-01-27T05:26:58;94228.75;;;2.39;90.84
46379;BME280;32084;42.254;22.744;2023-01-27T05:29:24;94239.16;;;2.40;91.30
46379;BME280;32084;42.254;22.744;2023-01-27T05:31:50;94254.06;;;2.51;90.73
46379;BME280;32084;42.254;22.744;2023-01-27T05:34:16;94250.56;;;2.41;90.68
46379;BME280;32084;42.254;22.744;2023-01-27T05:36:42;94261.50;;;2.36;91.25
46379;BME280;32084;42.254;22.744;2023-01-27T05:39:09;94261.34;;;2.28;91.80
46379;BME280;32084;42.254;22.744;2023-01-27T05:41:35;94267.25;;;2.41;91.74
46379;BME280;32084;42.254;22.744;2023-01-27T05:44:02;94271.28;;;2.45;91.54
46379;BME280;32084;42.254;22.744;2023-01-27T05:46:28;94271.00;;;2.48;91.43
46379;BME280;32084;42.254;22.744;2023-01-27T05:48:56;94251.69;;;2.48;91.65
46379;BME280;32084;42.254;22.744;2023-01-27T05:51:23;94267.88;;;2.64;90.12
46379;BME280;32084;42.254;22.744;2023-01-27T05:53:50;94266.19;;;2.73;88.77
46379;BME280;32084;42.254;22.744;2023-01-27T05:56:16;94270.66;;;2.82;87.59
46379;BME280;32084;42.254;22.744;2023-01-27T05:58:43;94272.50;;;2.82;87.55
46379;BME280;32084;42.254;22.744;2023-01-27T06:01:10;94274.13;;;2.73;88.28
46379;BME280;32084;42.254;22.744;2023-01-27T06:03:37;94278.44;;;2.74;88.30
46379;BME280;32084;42.254;22.744;2023-01-27T06:06:03;94261.91;;;2.72;88.02
46379;BME280;32084;42.254;22.744;2023-01-27T06:08:30;94269.97;;;2.70;88.40
46379;BME280;32084;42.254;22.744;2023-01-27T06:10:57;94276.06;;;2.71;88.12
46379;BME280;32084;42.254;22.744;2023-01-27T06:13:23;94284.84;;;2.71;88.04
46379;BME280;32084;42.254;22.744;2023-01-27T06:15:49;94287.50;;;2.81;87.34
46379;BME280;32084;42.254;22.744;2023-01-27T06:18:16;94277.06;;;2.80;87.37
46379;BME280;32084;42.254;22.744;2023-01-27T06:20:43;94282.72;;;2.75;88.04
46379;BME280;32084;42.254;22.744;2023-01-27T06:23:10;94286.63;;;2.81;87.59
46379;BME280;32084;42.254;22.744;2023-01-27T06:25:37;94288.47;;;2.80;87.17
46379;BME280;32084;42.254;22.744;2023-01-27T06:28:04;94288.19;;;2.83;86.69
46379;BME280;32084;42.254;22.744;2023-01-27T06:30:30;94284.72;;;2.83;86.46
46379;BME280;32084;42.254;22.744;2023-01-27T06:32:56;94291.28;;;2.88;86.24
46379;BME280;32084;42.254;22.744;2023-01-27T06:35:22;94281.81;;;2.96;86.21
46379;BME280;32084;42.254;22.744;2023-01-27T06:37:48;94275.28;;;3.00;85.68
46379;BME280;32084;42.254;22.744;2023-01-27T06:40:16;94269.59;;;2.95;85.48
46379;BME280;32084;42.254;22.744;2023-01-27T06:42:43;94265.72;;;2.99;85.37
46379;BME280;32084;42.254;22.744;2023-01-27T06:45:10;94260.75;;;3.15;84.89
46379;BME280;32084;42.254;22.744;2023-01-27T06:47:39;94263.91;;;3.09;84.50
46379;BME280;32084;42.254;22.744;2023-01-27T06:50:06;94271.13;;;3.07;84.89
46379;BME280;32084;42.254;22.744;2023-01-27T06:52:32;94264.19;;;3.06;84.91
46379;BME280;32084;42.254;22.744;2023-01-27T06:54:59;94277.94;;;3.00;85.06
46379;BME280;32084;42.254;22.744;2023-01-27T06:57:25;94277.53;;;2.95;85.92
46379;BME280;32084;42.254;22.744;2023-01-27T06:59:51;94283.03;;;2.82;87.13
46379;BME280;32084;42.254;22.744;2023-01-27T07:02:17;94274.69;;;2.77;88.79
46379;BME280;32084;42.254;22.744;2023-01-27T07:04:43;94272.34;;;2.83;89.18
46379;BME280;32084;42.254;22.744;2023-01-27T07:07:09;94275.16;;;2.91;88.75
46379;BME280;32084;42.254;22.744;2023-01-27T07:09:35;94275.72;;;3.05;87.80
46379;BME280;32084;42.254;22.744;2023-01-27T07:12:01;94266.84;;;3.06;87.58
46379;BME280;32084;42.254;22.744;2023-01-27T07:14:27;94270.56;;;2.93;88.61
46379;BME280;32084;42.254;22.744;2023-01-27T07:16:53;94269.03;;;3.01;88.58
46379;BME280;32084;42.254;22.744;2023-01-27T07:19:19;94265.72;;;3.08;88.08
46379;BME280;32084;42.254;22.744;2023-01-27T07:21:45;94260.44;;;3.08;88.52
46379;BME280;32084;42.254;22.744;2023-01-27T07:24:11;94257.22;;;3.05;88.66
46379;BME280;32084;42.254;22.744;2023-01-27T07:26:38;94259.75;;;3.16;88.43
46379;BME280;32084;42.254;22.744;2023-01-27T07:29:04;94272.41;;;3.22;88.03
46379;BME280;32084;42.254;22.744;2023-01-27T07:31:32;94266.97;;;3.24;87.25
46379;BME280;32084;42.254;22.744;2023-01-27T07:33:58;94266.44;;;3.40;86.87
46379;BME280;32084;42.254;22.744;2023-01-27T07:36:24;94267.13;;;3.51;86.25
46379;BME280;32084;42.254;22.744;2023-01-27T07:38:50;94275.19;;;3.40;86.15
46379;BME280;32084;42.254;22.744;2023-01-27T07:41:16;94279.09;;;3.26;87.23
46379;BME280;32084;42.254;22.744;2023-01-27T07:43:42;94272.25;;;3.24;87.80
46379;BME280;32084;42.254;22.744;2023-01-27T07:46:09;94276.84;;;3.31;88.04
46379;BME280;32084;42.254;22.744;2023-01-27T07:48:35;94276.47;;;3.26;87.63
46379;BME280;32084;42.254;22.744;2023-01-27T07:51:01;94270.44;;;3.24;88.16
46379;BME280;32084;42.254;22.744;2023-01-27T07:53:27;94268.66;;;3.25;88.72
46379;BME280;32084;42.254;22.744;2023-01-27T07:55:53;94272.69;;;3.39;88.87
46379;BME280;32084;42.254;22.744;2023-01-27T07:58:19;94275.47;;;3.47;88.37
46379;BME280;32084;42.254;22.744;2023-01-27T08:00:45;94267.41;;;3.39;88.48
46379;BME280;32084;42.254;22.744;2023-01-27T08:03:21;94270.63;;;3.32;88.66
46379;BME280;32084;42.254;22.744;2023-01-27T08:05:48;94252.78;;;3.54;87.80
46379;BME280;32084;42.254;22.744;2023-01-27T08:08:14;94252.22;;;3.60;87.31
46379;BME280;32084;42.254;22.744;2023-01-27T08:10:41;94265.97;;;3.74;86.39
46379;BME280;32084;42.254;22.744;2023-01-27T08:13:12;94261.56;;;3.74;84.98
46379;BME280;32084;42.254;22.744;2023-01-27T08:15:38;94260.16;;;3.80;84.39
46379;BME280;32084;42.254;22.744;2023-01-27T08:18:04;94262.78;;;3.89;84.06
46379;BME280;32084;42.254;22.744;2023-01-27T08:20:30;94258.72;;;3.95;83.92
46379;BME280;32084;42.254;22.744;2023-01-27T08:22:57;94257.56;;;4.07;82.96
46379;BME280;32084;42.254;22.744;2023-01-27T08:25:23;94253.56;;;4.03;82.84
46379;BME280;32084;42.254;22.744;2023-01-27T08:27:49;94253.25;;;4.16;81.07
46379;BME280;32084;42.254;22.744;2023-01-27T08:30:16;94252.81;;;4.11;81.76
46379;BME280;32084;42.254;22.744;2023-01-27T08:32:42;94255.06;;;4.16;82.25
46379;BME280;32084;42.254;22.744;2023-01-27T08:35:08;94261.13;;;4.26;81.05
46379;BME280;32084;42.254;22.744;2023-01-27T08:37:34;94256.81;;;4.35;80.86
46379;BME280;32084;42.254;22.744;2023-01-27T08:40:00;94260.69;;;4.40;80.31
46379;BME280;32084;42.254;22.744;2023-01-27T08:42:26;94268.63;;;4.30;80.91
46379;BME280;32084;42.254;22.744;2023-01-27T08:44:52;94282.22;;;4.18;82.45
46379;BME280;32084;42.254;22.744;2023-01-27T08:47:18;94278.06;;;3.96;82.53
46379;BME280;32084;42.254;22.744;2023-01-27T08:49:44;94271.81;;;3.87;82.75
46379;BME280;32084;42.254;22.744;2023-01-27T08:52:10;94274.03;;;4.01;82.36
46379;BME280;32084;42.254;22.744;2023-01-27T08:54:36;94271.81;;;3.97;81.77
46379;BME280;32084;42.254;22.744;2023-01-27T08:57:02;94281.28;;;3.99;81.97
46379;BME280;32084;42.254;22.744;2023-01-27T08:59:28;94272.53;;;3.89;83.06
46379;BME280;32084;42.254;22.744;2023-01-27T09:01:54;94264.03;;;3.95;83.09
46379;BME280;32084;42.254;22.744;2023-01-27T09:04:21;94264.25;;;4.02;82.11
46379;BME280;32084;42.254;22.744;2023-01-27T09:06:47;94257.63;;;3.88;83.55
46379;BME280;32084;42.254;22.744;2023-01-27T09:09:15;94259.56;;;3.96;83.49
46379;BME280;32084;42.254;22.744;2023-01-27T09:11:42;94260.34;;;4.06;82.18
46379;BME280;32084;42.254;22.744;2023-01-27T09:14:09;94262.03;;;4.07;82.33
46379;BME280;32084;42.254;22.744;2023-01-27T09:16:36;94255.91;;;4.06;82.72
46379;BME280;32084;42.254;22.744;2023-01-27T09:19:02;94253.28;;;4.06;82.36
46379;BME280;32084;42.254;22.744;2023-01-27T09:21:29;94250.63;;;4.06;82.00
46379;BME280;32084;42.254;22.744;2023-01-27T09:23:55;94250.50;;;3.98;82.28
46379;BME280;32084;42.254;22.744;2023-01-27T09:26:21;94256.09;;;3.95;83.10
46379;BME280;32084;42.254;22.744;2023-01-27T09:28:47;94253.16;;;3.88;84.44
46379;BME280;32084;42.254;22.744;2023-01-27T09:31:13;94257.34;;;3.91;83.17
46379;BME280;32084;42.254;22.744;2023-01-27T09:33:39;94270.84;;;3.88;82.61
46379;BME280;32084;42.254;22.744;2023-01-27T09:36:09;94268.75;;;3.91;82.81
46379;BME280;32084;42.254;22.744;2023-01-27T09:38:56;94264.84;;;3.96;82.93
46379;BME280;32084;42.254;22.744;2023-01-27T09:41:34;94259.41;;;3.97;81.50
46379;BME280;32084;42.254;22.744;2023-01-27T09:54:23;94234.38;;;3.91;82.99
46379;BME280;32084;42.254;22.744;2023-01-27T09:57:02;94228.13;;;3.83;81.93
46379;BME280;32084;42.254;22.744;2023-01-27T10:20:54;94210.56;;;3.91;83.54
46379;BME280;32084;42.254;22.744;2023-01-27T10:28:37;94205.84;;;4.23;81.86
46379;BME280;32084;42.254;22.744;2023-01-27T10:31:08;94206.53;;;4.25;81.94
46379;BME280;32084;42.254;22.744;2023-01-27T10:33:55;94195.31;;;4.13;82.58
46379;BME280;32084;42.254;22.744;2023-01-27T10:36:26;94193.72;;;4.02;82.79
46379;BME280;32084;42.254;22.744;2023-01-27T10:39:11;94190.88;;;4.04;82.79
46379;BME280;32084;42.254;22.744;2023-01-27T10:41:43;94184.09;;;4.01;81.89
46379;BME280;32084;42.254;22.744;2023-01-27T10:49:42;94191.22;;;4.28;81.48
46379;BME280;32084;42.254;22.744;2023-01-27T10:52:15;94187.19;;;4.24;82.98
46379;BME280;32084;42.254;22.744;2023-01-27T10:54:57;94193.97;;;4.37;81.92
46379;BME280;32084;42.254;22.744;2023-01-27T10:57:27;94197.03;;;4.32;82.20
46379;BME280;32084;42.254;22.744;2023-01-27T11:02:45;94190.28;;;4.20;81.84
46379;BME280;32084;42.254;22.744;2023-01-27T11:05:19;94188.25;;;4.14;82.67
46379;BME280;32084;42.254;22.744;2023-01-27T11:07:47;94185.31;;;4.07;83.10
46379;BME280;32084;42.254;22.744;2023-01-27T11:10:16;94181.47;;;3.91;84.05
46379;BME280;32084;42.254;22.744;2023-01-27T11:12:46;94182.44;;;3.90;84.52
46379;BME280;32084;42.254;22.744;2023-01-27T11:15:16;94184.00;;;3.93;85.64
46379;BME280;32084;42.254;22.744;2023-01-27T11:23:01;94170.50;;;3.86;85.68
46379;BME280;32084;42.254;22.744;2023-01-27T11:28:16;94175.78;;;3.86;86.45
46379;BME280;32084;42.254;22.744;2023-01-27T11:30:47;94168.84;;;3.85;86.29
46379;BME280;32084;42.254;22.744;2023-01-27T11:34:30;94168.81;;;3.95;86.29
46379;BME280;32084;42.254;22.744;2023-01-27T11:36:58;94162.16;;;3.91;85.67
46379;BME280;32084;42.254;22.744;2023-01-27T11:39:29;94169.91;;;3.92;86.44
46379;BME280;32084;42.254;22.744;2023-01-27T11:41:57;94167.03;;;3.86;86.11
46379;BME280;32084;42.254;22.744;2023-01-27T11:44:24;94163.16;;;3.80;86.32
46379;BME280;32084;42.254;22.744;2023-01-27T11:46:52;94168.75;;;3.67;88.37
46379;BME280;32084;42.254;22.744;2023-01-27T11:49:35;94165.69;;;3.72;87.82
46379;BME280;32084;42.254;22.744;2023-01-27T11:52:08;94168.56;;;3.79;86.89
46379;BME280;32084;42.254;22.744;2023-01-27T11:54:38;94166.66;;;3.71;88.22
46379;BME280;32084;42.254;22.744;2023-01-27T11:57:06;94161.91;;;3.75;88.28
46379;BME280;32084;42.254;22.744;2023-01-27T11:59:38;94165.91;;;3.88;87.79
46379;BME280;32084;42.254;22.744;2023-01-27T12:07:09;94156.53;;;3.94;86.12
46379;BME280;32084;42.254;22.744;2023-01-27T12:09:38;94159.91;;;3.86;86.86
46379;BME280;32084;42.254;22.744;2023-01-27T12:12:08;94164.94;;;3.89;86.66
46379;BME280;32084;42.254;22.744;2023-01-27T12:14:36;94169.91;;;3.92;86.50
46379;BME280;32084;42.254;22.744;2023-01-27T12:17:02;94163.94;;;3.90;86.19
46379;BME280;32084;42.254;22.744;2023-01-27T12:19:30;94166.34;;;3.84;86.16
46379;BME280;32084;42.254;22.744;2023-01-27T12:22:00;94173.59;;;3.82;86.51
46379;BME280;32084;42.254;22.744;2023-01-27T12:24:29;94168.56;;;3.79;87.54
46379;BME280;32084;42.254;22.744;2023-01-27T12:26:56;94174.72;;;3.69;88.18
46379;BME280;32084;42.254;22.744;2023-01-27T12:29:25;94182.09;;;3.76;87.70
46379;BME280;32084;42.254;22.744;2023-01-27T12:31:52;94174.31;;;3.74;87.06
46379;BME280;32084;42.254;22.744;2023-01-27T12:36:51;94174.56;;;3.81;87.15
46379;BME280;32084;42.254;22.744;2023-01-27T12:39:29;94173.72;;;3.80;87.80
46379;BME280;32084;42.254;22.744;2023-01-27T12:41:56;94177.22;;;3.71;88.48
46379;BME280;32084;42.254;22.744;2023-01-27T12:44:22;94170.53;;;3.77;87.90
46379;BME280;32084;42.254;22.744;2023-01-27T12:49:22;94166.41;;;3.64;88.33
46379;BME280;32084;42.254;22.744;2023-01-27T12:51:50;94171.16;;;3.61;89.05
46379;BME280;32084;42.254;22.744;2023-01-27T12:54:22;94167.50;;;3.62;89.09
46379;BME280;32084;42.254;22.744;2023-01-27T12:56:49;94168.06;;;3.65;89.00
46379;BME280;32084;42.254;22.744;2023-01-27T12:59:16;94160.56;;;3.61;88.89
46379;BME280;32084;42.254;22.744;2023-01-27T13:01:43;94161.13;;;3.55;89.00
46379;BME280;32084;42.254;22.744;2023-01-27T13:04:22;94169.06;;;3.45;89.64
46379;BME280;32084;42.254;22.744;2023-01-27T13:06:55;94165.31;;;3.57;88.95
46379;BME280;32084;42.254;22.744;2023-01-27T13:09:35;94168.09;;;3.56;89.50
46379;BME280;32084;42.254;22.744;2023-01-27T13:12:15;94169.75;;;3.66;88.82
46379;BME280;32084;42.254;22.744;2023-01-27T13:14:48;94165.31;;;3.57;89.87
46379;BME280;32084;42.254;22.744;2023-01-27T13:17:56;94163.94;;;3.53;90.33
46379;BME280;32084;42.254;22.744;2023-01-27T13:20:13;94162.78;;;3.65;89.64
46379;BME280;32084;42.254;22.744;2023-01-27T13:22:42;94153.88;;;3.66;89.43
46379;BME280;32084;42.254;22.744;2023-01-27T13:25:53;94167.38;;;3.63;90.04
46379;BME280;32084;42.254;22.744;2023-01-27T13:27:59;94168.78;;;3.58;90.56
46379;BME280;32084;42.254;22.744;2023-01-27T13:30:41;94168.09;;;3.46;91.86
46379;BME280;32084;42.254;22.744;2023-01-27T13:35:47;94160.88;;;3.48;92.17
46379;BME280;32084;42.254;22.744;2023-01-27T13:38:20;94159.88;;;3.49;92.06
46379;BME280;32084;42.254;22.744;2023-01-27T13:40:48;94164.75;;;3.54;92.12
46379;BME280;32084;42.254;22.744;2023-01-27T13:43:31;94164.72;;;3.63;91.86
46379;BME280;32084;42.254;22.744;2023-01-27T13:46:12;94167.47;;;3.71;91.31
46379;BME280;32084;42.254;22.744;2023-01-27T13:48:40;94169.44;;;3.69;91.43
46379;BME280;32084;42.254;22.744;2023-01-27T13:51:08;94163.28;;;3.79;90.70
46379;BME280;32084;42.254;22.744;2023-01-27T13:53:36;94173.88;;;3.79;90.40
46379;BME280;32084;42.254;22.744;2023-01-27T14:07:37;94173.91;;;3.59;90.68
46379;BME280;32084;42.254;22.744;2023-01-27T14:14:57;94184.06;;;3.54;91.07
46379;BME280;32084;42.254;22.744;2023-01-27T14:22:34;94194.91;;;3.70;90.13
46379;BME280;32084;42.254;22.744;2023-01-27T14:27:51;94193.78;;;3.73;90.03
46379;BME280;32084;42.254;22.744;2023-01-27T14:30:28;94206.75;;;3.66;90.96
46379;BME280;32084;42.254;22.744;2023-01-27T14:32:59;94200.59;;;3.66;90.79
46379;BME280;32084;42.254;22.744;2023-01-27T14:40:47;94207.81;;;3.74;89.75
46379;BME280;32084;42.254;22.744;2023-01-27T14:45:48;94210.34;;;3.65;89.80
46379;BME280;32084;42.254;22.744;2023-01-27T14:53:22;94213.44;;;3.61;90.80
46379;BME280;32084;42.254;22.744;2023-01-27T15:06:09;94223.94;;;3.90;90.22
46379;BME280;32084;42.254;22.744;2023-01-27T15:09:14;94231.63;;;3.83;90.13